Spokane International Airport
KGEG : now visible

Airfield :











YOU CAN JOIN US ON...

 
LOGIN :

Register | Disclaimer

   EN    FR    IT 

 









Legend :    VFR   Marginal VFR   IFR   Intensive IFR   Very Intensive IFR
Visi :
Ceiling :
>= 8 km
>= 3000ft
5 to 8 km
1000 to 3000 ft
1500m to 5 km
500 to 1000 ft
800 to 1500m
200 to 500 ft
< 800m
< 200 ft
Symbols :   Thunderstorms  Fog  Heavy snow  Heavy precipitations  Wind > 20 kt






- Airport Elevation : 2376 ft
- IATA code : GEG


KGEG - Spokane International

CURRENT METAR :
  • 240907Z 36008KT 3SM -SN BR SCT031 BKN090 OVC110 M01/M02 A2991 RMK AO2 SFC VIS 5 P0000 T10061017

EXPIRED METARs :
  • 240853Z COR 02007KT 1SM R21/P6000FT -SN BR BKN028 OVC080 M01/M02 A2990 RMK AO2 SFC VIS 4 SLP144 FROPA SNINCR 1/7 P0001 60001 T10061017 51014
  • 240806Z 01007KT 1SM R21/P6000FT -SN BR FEW005 SCT012 OVC025 M01/M02 A2989 RMK AO2 P0000 T10061017
  • 240753Z 36008KT 1SM R21/P6000FT -SN BR FEW006 BKN010 OVC021 M01/M02 A2989 RMK AO2 SFC VIS 2 SLP142 P0000 T10061017 400061033
  • 240723Z 35008KT 3SM -SN BR FEW006 BKN010 OVC022 M01/M02 A2988 RMK AO2 SFC VIS 5 P0000 T10061017
  • 240653Z 01010KT 3SM -SN BR FEW007 OVC020 00/M02 A2987 RMK AO2 SFC VIS 5 SLP135 P0000 T00001017
  • 240645Z 01010KT 3SM -SN BR SCT007 OVC017 00/M02 A2987 RMK AO2 SFC VIS 4 P0000 T00001017

TAF KGEG
Valid from the 24 at 06:00 until the 25 at 06:00 UTC


240520Z 2406/2506 02007KT 1SM -SN BR OVC002
FM240730 03007KT 1SM -SN BR OVC010
FM240900 03014G23KT 4SM BR OVC018
FM241200 02012G24KT P6SM FEW035
FM241600 04016G29KT P6SM FEW100
FM242000 03012G20KT P6SM SKC
FM250100 03011KT P6SM SKC
KZSE FIR / North America



MET'MAP, your aeronautical weather chart ! - Copyright ORBIFLY December 2007 - Disclaimer

ORBIFLY MET'MAP TEAM :

Programming & Development : Alexandra Zaïnal
Concept & original design : Baudouin d'Aumeries
Assistance for programming : Marc-Olivier Méhu
Technical & hardware support : Manuel Goepfert

Contact : metmap@orbifly.com




SOURCES & CREDITS :

   NOAA       Earth
Advisory